Time;durP1;ratioP1;P1;durP2;ratioP2;P2;SDS_P1;SDS_P2;PMS_P1;PMS_P2;Temp;Humidity;BMP_temperature;BMP_pressure;BME280_temperature;BME280_humidity;BME280_pressure;Samples;Min_cycle;Max_cycle;Signal;HPM_P1;HPM_P2
2023/08/06 00:04:08;;;;;;;;;;;;;;;22.14;51.06;95008.34;10445457;28;2028;-68
2023/08/06 00:09:08;;;;;;;;;;;;;;;22.14;50.87;95021.53;10451159;28;2112;-67
2023/08/06 00:14:08;;;;;;;;;;;;;;;22.14;51.07;95015.47;10452158;28;1869;-68
2023/08/06 00:19:09;;;;;;;;;;;;;;;22.14;50.74;95011.00;10444418;28;2023;-68
2023/08/06 00:24:09;;;;;;;;;;;;;;;22.13;50.73;95016.56;10469447;28;2449;-68
2023/08/06 00:29:09;;;;;;;;;;;;;;;22.13;50.78;95017.38;10438579;28;2112;-68
2023/08/06 00:34:10;;;;;;;;;;;;;;;22.12;50.82;95009.72;10441593;28;1840;-68
2023/08/06 00:39:10;;;;;;;;;;;;;;;22.11;50.94;95006.31;10437846;28;1938;-68
2023/08/06 00:44:11;;;;;;;;;;;;;;;22.12;50.82;95004.44;10445803;28;2082;-68
2023/08/06 00:49:11;;;;;;;;;;;;;;;22.12;50.94;94999.16;10438039;28;1976;-68
2023/08/06 00:54:11;;;;;;;;;;;;;;;22.11;51.03;94994.97;10450208;28;1881;-68
2023/08/06 00:59:12;;;;;;;;;;;;;;;22.11;50.95;94995.78;10470670;28;1993;-67
2023/08/06 01:04:12;;;;;;;;;;;;;;;22.11;50.70;94981.78;10484423;28;2082;-67
2023/08/06 01:09:18;;;;;;;;;;;;;;;22.10;50.61;94981.00;10446265;28;1981;-68
2023/08/06 01:14:22;;;;;;;;;;;;;;;22.11;50.64;94992.34;10489141;28;2088;-68
2023/08/06 01:19:22;;;;;;;;;;;;;;;22.10;50.78;94988.91;10444741;28;2383;-68
2023/08/06 01:24:22;;;;;;;;;;;;;;;22.09;50.92;94984.69;10454132;28;1947;-68
2023/08/06 01:29:23;;;;;;;;;;;;;;;22.09;50.79;94971.50;10449497;28;2056;-68
2023/08/06 01:34:24;;;;;;;;;;;;;;;22.10;50.85;94972.28;10448651;28;1970;-67
2023/08/06 01:39:24;;;;;;;;;;;;;;;22.10;50.90;94967.00;10453076;28;2065;-67
2023/08/06 01:44:24;;;;;;;;;;;;;;;22.09;50.55;94965.47;10450822;28;4528;-68
2023/08/06 01:49:24;;;;;;;;;;;;;;;22.09;50.95;94963.59;10453981;28;1970;-67
2023/08/06 01:54:25;;;;;;;;;;;;;;;22.09;50.88;94962.84;10454346;28;1952;-68
2023/08/06 01:59:25;;;;;;;;;;;;;;;22.07;50.84;94955.19;10447358;28;1921;-68
2023/08/06 02:04:25;;;;;;;;;;;;;;;22.08;50.69;94956.78;10464286;28;1937;-68
2023/08/06 02:09:25;;;;;;;;;;;;;;;22.08;50.64;94948.06;10443202;28;2174;-68
2023/08/06 02:14:26;;;;;;;;;;;;;;;22.08;50.91;94948.06;10482506;28;2246;-68
2023/08/06 02:19:26;;;;;;;;;;;;;;;22.07;50.88;94938.59;10452749;28;1970;-68
2023/08/06 02:24:26;;;;;;;;;;;;;;;22.06;50.76;94926.47;10451814;28;2010;-68
2023/08/06 02:29:26;;;;;;;;;;;;;;;22.07;50.70;94928.03;10446954;28;1996;-68
2023/08/06 02:34:27;;;;;;;;;;;;;;;22.06;50.76;94919.34;10446618;28;1961;-68
2023/08/06 02:39:27;;;;;;;;;;;;;;;22.06;50.75;94916.69;10446000;28;1976;-67
2023/08/06 02:44:27;;;;;;;;;;;;;;;22.06;50.56;94911.44;10445141;28;4434;-68
2023/08/06 02:49:28;;;;;;;;;;;;;;;22.06;50.77;94898.22;10451956;28;2035;-68
2023/08/06 02:54:28;;;;;;;;;;;;;;;22.06;50.54;94869.19;10451575;28;1995;-68
2023/08/06 02:59:28;;;;;;;;;;;;;;;22.06;50.75;94877.13;10474090;28;2086;-67
2023/08/06 03:04:28;;;;;;;;;;;;;;;22.05;50.46;94877.44;10450876;28;2243;-68
2023/08/06 03:09:29;;;;;;;;;;;;;;;22.04;50.57;94876.63;10450875;28;1968;-68
2023/08/06 03:14:29;;;;;;;;;;;;;;;22.05;50.43;94883.47;10445950;28;2232;-68
2023/08/06 03:19:29;;;;;;;;;;;;;;;22.04;50.53;94887.19;10444481;28;2059;-68
2023/08/06 03:24:29;;;;;;;;;;;;;;;22.04;50.36;94891.69;10474999;28;1990;-68
2023/08/06 03:29:30;;;;;;;;;;;;;;;22.02;50.74;94884.09;10441046;28;1953;-68
2023/08/06 03:34:30;;;;;;;;;;;;;;;22.03;50.66;94890.16;10448531;28;2250;-68
2023/08/06 03:39:30;;;;;;;;;;;;;;;22.03;50.52;94885.63;10441615;28;1975;-68
2023/08/06 03:44:31;;;;;;;;;;;;;;;22.04;50.31;94878.50;10484649;28;4641;-69
2023/08/06 03:49:31;;;;;;;;;;;;;;;22.02;50.37;94884.09;10448548;28;2231;-68
2023/08/06 03:54:31;;;;;;;;;;;;;;;22.02;50.44;94876.16;10444978;28;2258;-68
2023/08/06 03:59:32;;;;;;;;;;;;;;;22.02;50.35;94873.53;10445191;28;2062;-68
2023/08/06 04:04:32;;;;;;;;;;;;;;;22.02;50.57;94870.09;10474291;28;1950;-68
2023/08/06 04:09:33;;;;;;;;;;;;;;;22.01;50.21;94866.69;10474025;28;2307;-68
2023/08/06 04:14:33;;;;;;;;;;;;;;;22.02;50.54;94872.75;10447467;28;2078;-68
2023/08/06 04:19:33;;;;;;;;;;;;;;;22.01;50.39;94868.56;10444289;28;2264;-67
2023/08/06 04:24:33;;;;;;;;;;;;;;;22.01;50.08;94877.22;10446918;28;2124;-67
2023/08/06 04:29:34;;;;;;;;;;;;;;;22.00;50.32;94872.25;10441898;28;2163;-68
2023/08/06 04:34:34;;;;;;;;;;;;;;;22.01;50.23;94879.13;10445365;28;1917;-68
2023/08/06 04:39:34;;;;;;;;;;;;;;;22.01;50.22;94881.75;10444445;28;2011;-68
2023/08/06 04:44:35;;;;;;;;;;;;;;;22.00;50.05;94875.69;10445173;28;4454;-68
2023/08/06 04:49:35;;;;;;;;;;;;;;;22.00;50.09;94882.81;10440011;28;1934;-68
2023/08/06 04:54:36;;;;;;;;;;;;;;;21.99;50.18;94876.75;10435895;28;1905;-68
2023/08/06 04:59:36;;;;;;;;;;;;;;;21.99;50.13;94881.28;10436119;28;2101;-68
2023/08/06 05:04:36;;;;;;;;;;;;;;;21.98;50.09;94872.56;10442153;28;1878;-68
2023/08/06 05:09:37;;;;;;;;;;;;;;;21.99;50.34;94884.66;10436938;28;2303;-68
2023/08/06 05:14:37;;;;;;;;;;;;;;;21.98;50.31;94869.94;10440366;28;2076;-68
2023/08/06 05:19:37;;;;;;;;;;;;;;;21.98;50.27;94869.94;10439635;28;1877;-68
2023/08/06 05:24:37;;;;;;;;;;;;;;;21.99;50.11;94878.63;10442915;28;1868;-69
2023/08/06 05:29:38;;;;;;;;;;;;;;;21.98;50.00;94879.72;10473737;28;1983;-68
2023/08/06 05:34:38;;;;;;;;;;;;;;;21.98;50.12;94884.97;10440650;28;1923;-69
2023/08/06 05:39:38;;;;;;;;;;;;;;;21.97;50.04;94897.38;10445159;28;1841;-69
2023/08/06 05:44:38;;;;;;;;;;;;;;;21.98;50.10;94892.91;10451034;28;4473;-67
2023/08/06 05:49:39;;;;;;;;;;;;;;;21.95;49.77;94878.44;10450330;28;1902;-68
2023/08/06 05:54:40;;;;;;;;;;;;;;;21.97;50.05;94883.44;10449693;28;1858;-69
2023/08/06 05:59:40;;;;;;;;;;;;;;;21.97;50.08;94880.81;10447340;28;2367;-69
2023/08/06 06:04:40;;;;;;;;;;;;;;;21.97;50.32;94886.84;10449006;28;2042;-68
2023/08/06 06:09:41;;;;;;;;;;;;;;;21.97;49.89;94875.53;10474563;28;1957;-68
2023/08/06 06:14:41;;;;;;;;;;;;;;;21.97;50.14;94880.81;10454366;28;1928;-68
2023/08/06 06:19:41;;;;;;;;;;;;;;;21.96;50.13;94885.28;10453641;28;2139;-68
2023/08/06 06:24:41;;;;;;;;;;;;;;;21.96;49.92;94890.56;10446355;28;1896;-68
2023/08/06 06:29:42;;;;;;;;;;;;;;;21.97;50.22;94891.34;10438055;28;1969;-68
2023/08/06 06:34:42;;;;;;;;;;;;;;;21.95;50.17;94886.34;10450185;28;1981;-73
2023/08/06 06:39:44;;;;;;;;;;;;;;;21.96;49.86;94887.94;10440754;28;1862;-68
2023/08/06 06:44:44;;;;;;;;;;;;;;;21.96;50.00;94889.78;10475259;28;4787;-68
2023/08/06 06:49:44;;;;;;;;;;;;;;;21.96;50.01;94884.50;10446273;28;1914;-69
2023/08/06 06:54:44;;;;;;;;;;;;;;;21.96;50.33;94889.78;10453195;28;1905;-68
2023/08/06 06:59:45;;;;;;;;;;;;;;;21.95;50.24;94888.25;10447084;28;1985;-69
2023/08/06 07:04:45;;;;;;;;;;;;;;;21.95;50.31;94888.25;10448925;28;2076;-69
2023/08/06 07:09:45;;;;;;;;;;;;;;;21.95;49.91;94883.72;10443159;28;1897;-69
2023/08/06 07:14:45;;;;;;;;;;;;;;;21.96;50.28;94884.50;10441582;28;1904;-69
2023/08/06 07:19:46;;;;;;;;;;;;;;;21.95;49.92;94888.25;10441562;28;1926;-69
2023/08/06 07:24:46;;;;;;;;;;;;;;;21.94;49.98;94887.47;10442576;28;1826;-69
2023/08/06 07:29:48;;;;;;;;;;;;;;;21.93;50.08;94891.16;10439442;28;1977;-68
2023/08/06 07:34:48;;;;;;;;;;;;;;;21.95;50.21;94893.53;10451682;28;1855;-68
2023/08/06 07:39:48;;;;;;;;;;;;;;;21.94;50.01;94884.81;10441675;28;4450;-68
2023/08/06 07:44:52;;;;;;;;;;;;;;;21.95;50.04;94881.09;10447035;28;1869;-69
2023/08/06 07:49:52;;;;;;;;;;;;;;;21.94;49.88;94879.53;10445584;28;1965;-68
2023/08/06 07:54:53;;;;;;;;;;;;;;;21.94;50.10;94871.63;10460378;28;2374;-68
2023/08/06 07:59:53;;;;;;;;;;;;;;;21.94;50.02;94871.63;10447872;28;1812;-69
2023/08/06 08:04:53;;;;;;;;;;;;;;;21.94;49.98;94870.84;10448677;28;2061;-66
2023/08/06 08:09:54;;;;;;;;;;;;;;;21.93;49.99;94864.78;10445625;28;2176;-66
2023/08/06 08:14:54;;;;;;;;;;;;;;;21.94;49.97;94861.06;10446840;28;1968;-68
2023/08/06 08:19:54;;;;;;;;;;;;;;;21.92;50.22;94841.34;10443183;28;1709;-68
2023/08/06 08:24:55;;;;;;;;;;;;;;;21.94;50.27;94845.25;10443346;28;1940;-68
2023/08/06 08:29:55;;;;;;;;;;;;;;;21.94;50.04;94839.97;10448044;28;1981;-68
2023/08/06 08:34:55;;;;;;;;;;;;;;;21.94;50.23;94837.31;10446854;28;1920;-67
2023/08/06 08:39:56;;;;;;;;;;;;;;;21.94;49.98;94834.69;10443773;28;4450;-68
2023/08/06 08:44:56;;;;;;;;;;;;;;;21.94;49.97;94834.69;10450659;28;1947;-68
2023/08/06 08:49:56;;;;;;;;;;;;;;;21.94;49.85;94857.66;10440121;28;2355;-68
2023/08/06 08:54:57;;;;;;;;;;;;;;;21.94;49.89;94852.38;10472219;28;1878;-67
2023/08/06 08:59:57;;;;;;;;;;;;;;;21.94;50.06;94853.16;10455214;28;1906;-67
2023/08/06 09:04:59;;;;;;;;;;;;;;;21.93;50.03;94854.22;10437900;28;1965;-68
2023/08/06 09:10:00;;;;;;;;;;;;;;;21.93;49.79;94854.22;10445727;28;1959;-68
2023/08/06 09:15:03;;;;;;;;;;;;;;;21.93;50.24;94869.28;10457904;28;1890;-68
2023/08/06 09:20:12;;;;;;;;;;;;;;;21.93;50.27;94875.31;10448692;28;1891;-68
2023/08/06 09:25:16;;;;;;;;;;;;;;;21.93;50.11;94874.56;10449182;28;1909;-67
2023/08/06 09:30:28;;;;;;;;;;;;;;;21.93;49.90;94871.94;10478780;28;1898;-67
2023/08/06 09:35:29;;;;;;;;;;;;;;;21.92;49.96;94870.38;10447047;28;1901;-67
2023/08/06 09:40:30;;;;;;;;;;;;;;;21.92;50.03;94873.78;10451587;28;4451;-69
2023/08/06 09:45:32;;;;;;;;;;;;;;;21.92;50.07;94873.78;10477803;28;2225;-68
2023/08/06 09:50:33;;;;;;;;;;;;;;;21.92;49.95;94873.78;10454340;28;1975;-68
2023/08/06 09:55:34;;;;;;;;;;;;;;;21.91;50.04;94872.22;10456453;28;1965;-67
2023/08/06 10:00:35;;;;;;;;;;;;;;;21.92;49.95;94884.34;10453823;28;1961;-67
2023/08/06 10:05:35;;;;;;;;;;;;;;;21.91;49.73;94903.88;10460766;28;1931;-66
2023/08/06 10:10:35;;;;;;;;;;;;;;;21.91;49.98;94890.69;10448134;28;1994;-67
2023/08/06 10:15:36;;;;;;;;;;;;;;;21.92;49.92;94892.25;10448453;28;1949;-68
2023/08/06 10:20:36;;;;;;;;;;;;;;;21.92;49.57;94889.63;10446603;28;2095;-68
2023/08/06 10:25:40;;;;;;;;;;;;;;;21.92;49.60;94879.06;10445287;28;1955;-69
2023/08/06 10:30:46;;;;;;;;;;;;;;;21.93;50.00;94885.13;10481044;28;1913;-70
2023/08/06 10:35:50;;;;;;;;;;;;;;;21.91;49.83;94874.84;10443414;28;1779;-69
2023/08/06 10:40:53;;;;;;;;;;;;;;;21.90;50.04;94886.50;10437653;28;2202;-71
2023/08/06 10:45:53;;;;;;;;;;;;;;;21.92;49.89;94873.00;10448534;28;1853;-70
2023/08/06 10:50:54;;;;;;;;;;;;;;;21.92;49.88;94900.16;10447741;28;1920;-72
2023/08/06 10:55:54;;;;;;;;;;;;;;;21.92;49.50;94889.63;10447911;28;1878;-71
2023/08/06 11:00:55;;;;;;;;;;;;;;;21.92;49.60;94897.53;10450523;28;1906;-70
2023/08/06 11:05:56;;;;;;;;;;;;;;;21.91;49.81;94885.41;10439041;28;1836;-69
2023/08/06 11:11:07;;;;;;;;;;;;;;;21.92;49.51;94888.84;10447547;28;2005;-70
2023/08/06 11:16:07;;;;;;;;;;;;;;;21.91;49.33;94887.28;10446612;28;1846;-70
2023/08/06 11:21:08;;;;;;;;;;;;;;;21.92;49.74;94902.81;10453224;28;1893;-69
2023/08/06 11:26:08;;;;;;;;;;;;;;;21.92;49.30;94904.66;10442427;28;1844;-70
2023/08/06 11:31:18;;;;;;;;;;;;;;;21.92;49.50;94905.44;10446270;28;1907;-70
2023/08/06 11:36:28;;;;;;;;;;;;;;;21.92;49.65;94904.66;10446508;28;2288;-71
2023/08/06 11:41:29;;;;;;;;;;;;;;;21.91;49.38;94911.03;10465246;28;1987;-70
2023/08/06 11:46:29;;;;;;;;;;;;;;;21.91;49.58;94903.88;10451548;28;1811;-68
2023/08/06 11:51:29;;;;;;;;;;;;;;;21.90;49.29;94915.53;10448150;28;1918;-68
2023/08/06 11:56:29;;;;;;;;;;;;;;;21.90;49.61;94923.44;10444259;28;1980;-70
2023/08/06 12:01:30;;;;;;;;;;;;;;;21.90;49.55;94930.56;10469898;28;1884;-72
2023/08/06 12:06:30;;;;;;;;;;;;;;;21.91;49.43;94938.19;10470681;28;1875;-70
2023/08/06 12:11:30;;;;;;;;;;;;;;;21.91;49.25;94935.53;10477324;28;1920;-70
2023/08/06 12:16:31;;;;;;;;;;;;;;;21.90;49.46;94939.28;10441164;28;1885;-70
2023/08/06 12:21:31;;;;;;;;;;;;;;;21.90;49.47;94938.50;10445253;28;1767;-69
2023/08/06 12:26:31;;;;;;;;;;;;;;;21.91;49.21;94940.06;10441920;28;1994;-71
2023/08/06 12:31:31;;;;;;;;;;;;;;;21.92;49.46;94941.59;10445686;28;1926;-70
2023/08/06 12:36:32;;;;;;;;;;;;;;;21.90;49.45;94934.00;10431059;28;2269;-70
2023/08/06 12:41:32;;;;;;;;;;;;;;;21.92;49.76;94942.38;10439697;28;4550;-69
2023/08/06 12:46:32;;;;;;;;;;;;;;;21.92;50.02;94946.88;10471968;28;1893;-74
2023/08/06 12:51:33;;;;;;;;;;;;;;;21.93;50.16;94959.75;10448976;28;1941;-70
2023/08/06 12:56:34;;;;;;;;;;;;;;;21.96;50.46;94967.09;10458548;28;1865;-69
2023/08/06 13:01:34;;;;;;;;;;;;;;;21.97;50.44;94968.63;10452329;28;2372;-67
2023/08/06 13:06:36;;;;;;;;;;;;;;;21.97;50.40;94963.34;10451143;28;1857;-66
2023/08/06 13:11:37;;;;;;;;;;;;;;;21.98;50.58;94966.78;10452463;28;1898;-67
2023/08/06 13:16:38;;;;;;;;;;;;;;;21.99;50.12;94961.19;10452184;28;2133;-66
2023/08/06 13:21:41;;;;;;;;;;;;;;;21.97;50.54;94963.34;10456888;28;1475;-66
2023/08/06 13:26:42;;;;;;;;;;;;;;;21.97;50.53;94966.00;10459644;28;1490;-65
2023/08/06 13:31:42;;;;;;;;;;;;;;;21.97;50.27;94966.00;10453926;28;1914;-66
2023/08/06 13:36:42;;;;;;;;;;;;;;;21.99;50.62;94979.66;10453379;28;1516;-66
2023/08/06 13:41:43;;;;;;;;;;;;;;;21.99;50.02;94981.56;10461059;28;4568;-66
2023/08/06 13:46:43;;;;;;;;;;;;;;;21.99;50.05;94976.28;10457656;28;1506;-66
2023/08/06 13:51:43;;;;;;;;;;;;;;;21.98;50.06;94978.13;10451353;28;1937;-66
2023/08/06 13:56:44;;;;;;;;;;;;;;;21.96;49.53;94988.22;10450752;28;1790;-66
2023/08/06 14:01:44;;;;;;;;;;;;;;;21.96;49.82;94990.84;10455431;28;1596;-66
2023/08/06 14:06:44;;;;;;;;;;;;;;;21.93;49.87;94988.78;10454253;28;1487;-67
2023/08/06 14:11:45;;;;;;;;;;;;;;;21.94;49.87;95014.13;10457194;28;1971;-67
2023/08/06 14:16:45;;;;;;;;;;;;;;;21.92;49.71;94997.81;10463650;28;1584;-66
2023/08/06 14:21:45;;;;;;;;;;;;;;;21.93;49.93;95012.53;10456693;28;1596;-67
2023/08/06 14:26:46;;;;;;;;;;;;;;;21.93;49.77;95025.72;10458357;28;2308;-67
2023/08/06 14:31:46;;;;;;;;;;;;;;;21.92;49.67;95034.75;10456048;28;1914;-67
2023/08/06 14:36:46;;;;;;;;;;;;;;;21.91;49.81;95030.53;10454323;28;1490;-66
2023/08/06 14:41:47;;;;;;;;;;;;;;;21.90;49.61;95039.53;10453051;28;4507;-66
2023/08/06 14:46:47;;;;;;;;;;;;;;;21.90;49.34;95049.31;10456309;28;1475;-66
2023/08/06 14:51:47;;;;;;;;;;;;;;;21.88;49.65;95052.25;10454630;28;1909;-66
2023/08/06 14:56:47;;;;;;;;;;;;;;;21.88;49.35;95074.13;10433222;28;1747;-66
2023/08/06 15:01:48;;;;;;;;;;;;;;;21.89;49.39;95074.91;10453478;28;1491;-66
2023/08/06 15:06:48;;;;;;;;;;;;;;;21.89;49.26;95090.72;10454950;28;1559;-66
2023/08/06 15:11:49;;;;;;;;;;;;;;;21.88;49.41;95083.13;10455348;28;1909;-66
2023/08/06 15:16:51;;;;;;;;;;;;;;;21.88;49.11;95083.13;10457528;28;1663;-67
2023/08/06 15:21:51;;;;;;;;;;;;;;;21.89;49.40;95106.56;10454966;28;1540;-66
2023/08/06 15:26:51;;;;;;;;;;;;;;;21.87;49.48;95108.72;10447459;28;1498;-66
2023/08/06 15:31:52;;;;;;;;;;;;;;;21.87;49.17;95121.91;10459392;28;1918;-66
2023/08/06 15:36:52;;;;;;;;;;;;;;;21.86;49.08;95123.00;10447988;28;1834;-65
2023/08/06 15:41:52;;;;;;;;;;;;;;;21.86;48.97;95128.28;10440852;28;1980;-65
2023/08/06 15:46:53;;;;;;;;;;;;;;;21.86;49.12;95133.56;10446380;28;1799;-65
2023/08/06 15:51:53;;;;;;;;;;;;;;;21.85;49.10;95155.72;10447913;28;1981;-65
2023/08/06 15:56:53;;;;;;;;;;;;;;;21.86;49.35;95157.31;10446566;28;1885;-65
2023/08/06 16:01:54;;;;;;;;;;;;;;;21.88;49.43;95149.09;10455464;28;1866;-64
2023/08/06 16:06:54;;;;;;;;;;;;;;;21.91;49.43;95140.59;10447000;28;1898;-65
2023/08/06 16:11:54;;;;;;;;;;;;;;;21.95;49.64;95136.28;10483216;28;2013;-66
2023/08/06 16:16:55;;;;;;;;;;;;;;;21.99;49.04;95153.84;10448327;28;1873;-64
2023/08/06 16:21:55;;;;;;;;;;;;;;;22.02;49.22;95169.09;10445752;28;1822;-65
2023/08/06 16:26:55;;;;;;;;;;;;;;;22.05;49.57;95176.41;10441368;28;1881;-65
2023/08/06 16:31:57;;;;;;;;;;;;;;;22.09;49.37;95190.56;10448599;28;1914;-64
2023/08/06 16:36:57;;;;;;;;;;;;;;;22.06;49.26;95183.25;10440900;28;1926;-66
2023/08/06 16:41:58;;;;;;;;;;;;;;;22.04;49.15;95172.22;10443340;28;4525;-66
2023/08/06 16:46:59;;;;;;;;;;;;;;;22.03;49.09;95175.94;10445807;28;1870;-66
2023/08/06 16:51:59;;;;;;;;;;;;;;;22.01;48.95;95175.44;10446713;28;1934;-66
2023/08/06 16:57:01;;;;;;;;;;;;;;;21.99;49.03;95180.22;10443510;28;1893;-66
2023/08/06 17:02:01;;;;;;;;;;;;;;;21.98;49.31;95181.31;10447082;28;1873;-66
2023/08/06 17:07:02;;;;;;;;;;;;;;;21.98;49.14;95188.47;10441132;28;1869;-66
2023/08/06 17:12:02;;;;;;;;;;;;;;;21.98;49.50;95191.09;10442800;28;1981;-66
2023/08/06 17:17:02;;;;;;;;;;;;;;;21.96;49.78;95172.13;10449540;28;2231;-68
2023/08/06 17:22:03;;;;;;;;;;;;;;;21.96;49.65;95180.06;10445343;28;1941;-70
2023/08/06 17:27:04;;;;;;;;;;;;;;;21.94;49.61;95183.00;10474567;28;1942;-70
2023/08/06 17:32:04;;;;;;;;;;;;;;;21.93;49.70;95197.25;10442225;28;2003;-70
2023/08/06 17:37:05;;;;;;;;;;;;;;;21.92;49.58;95211.53;10447840;28;1905;-71
2023/08/06 17:42:10;;;;;;;;;;;;;;;21.92;49.61;95216.03;10465746;28;4564;-71
2023/08/06 17:47:10;;;;;;;;;;;;;;;21.90;49.63;95212.91;10462007;28;1483;-71
2023/08/06 17:52:10;;;;;;;;;;;;;;;21.88;49.34;95215.84;10459091;28;1989;-70
2023/08/06 17:57:11;;;;;;;;;;;;;;;21.88;49.30;95225.59;10462529;28;1793;-70
2023/08/06 18:02:11;;;;;;;;;;;;;;;21.88;49.17;95228.25;10466989;28;1515;-71
2023/08/06 18:07:11;;;;;;;;;;;;;;;21.86;49.00;95239.09;10460668;28;1495;-72
2023/08/06 18:12:11;;;;;;;;;;;;;;;21.84;48.93;95254.44;10463636;28;2285;-71
2023/08/06 18:17:13;;;;;;;;;;;;;;;21.83;49.00;95255.50;10455560;28;1552;-70
2023/08/06 18:22:14;;;;;;;;;;;;;;;21.81;48.56;95257.63;10465995;28;1471;-70
2023/08/06 18:27:17;;;;;;;;;;;;;;;21.80;48.75;95256.06;10461056;28;1683;-70
2023/08/06 18:32:17;;;;;;;;;;;;;;;21.80;49.36;95254.19;10496302;28;1965;-70
2023/08/06 18:37:17;;;;;;;;;;;;;;;21.83;49.40;95252.88;10456833;28;1610;-70
2023/08/06 18:42:18;;;;;;;;;;;;;;;21.88;49.47;95256.19;10462254;28;4485;-70
2023/08/06 18:47:18;;;;;;;;;;;;;;;21.91;49.08;95257.47;10461447;28;1434;-70
2023/08/06 18:52:18;;;;;;;;;;;;;;;21.93;49.22;95268.50;10464458;28;1956;-70
2023/08/06 18:57:19;;;;;;;;;;;;;;;21.96;48.75;95273.22;10467817;28;1596;-71
2023/08/06 19:02:19;;;;;;;;;;;;;;;21.98;48.95;95286.09;10457512;28;1494;-70
2023/08/06 19:07:20;;;;;;;;;;;;;;;22.00;48.92;95279.47;10456341;28;2327;-72
2023/08/06 19:12:20;;;;;;;;;;;;;;;22.01;48.94;95291.56;10454651;28;1977;-71
2023/08/06 19:17:21;;;;;;;;;;;;;;;22.03;49.41;95292.06;10475329;28;1427;-71
2023/08/06 19:22:21;;;;;;;;;;;;;;;22.04;48.91;95288.34;10456306;28;1512;-70
2023/08/06 19:27:22;;;;;;;;;;;;;;;22.04;48.90;95293.63;10455027;28;1695;-69
2023/08/06 19:32:22;;;;;;;;;;;;;;;22.06;48.53;95304.69;10461364;28;2075;-69
2023/08/06 19:37:23;;;;;;;;;;;;;;;22.06;48.43;95302.03;10459725;28;1435;-70
2023/08/06 19:42:23;;;;;;;;;;;;;;;22.06;48.60;95307.31;10457956;28;4537;-69
2023/08/06 19:47:23;;;;;;;;;;;;;;;22.09;48.81;95314.63;10455306;28;1480;-69
2023/08/06 19:52:24;;;;;;;;;;;;;;;22.11;48.63;95314.38;10457763;28;1914;-70
2023/08/06 19:57:24;;;;;;;;;;;;;;;22.09;48.28;95311.25;10452670;28;1480;-71
2023/08/06 20:02:24;;;;;;;;;;;;;;;22.08;48.63;95305.16;10457354;28;2252;-71
2023/08/06 20:07:24;;;;;;;;;;;;;;;22.09;48.52;95305.97;10462762;28;1460;-71
2023/08/06 20:12:25;;;;;;;;;;;;;;;22.10;48.16;95307.50;10457078;28;1906;-73
2023/08/06 20:17:25;;;;;;;;;;;;;;;22.09;48.49;95312.00;10451993;28;1608;-70
2023/08/06 20:22:25;;;;;;;;;;;;;;;22.09;48.58;95304.06;10467352;28;1488;-69
2023/08/06 20:27:26;;;;;;;;;;;;;;;22.10;48.09;95324.13;10478924;28;1500;-69
2023/08/06 20:32:27;;;;;;;;;;;;;;;22.09;48.35;95321.78;10450984;28;1902;-70
2023/08/06 20:37:27;;;;;;;;;;;;;;;22.10;48.37;95318.84;10444150;28;1921;-68
2023/08/06 20:42:27;;;;;;;;;;;;;;;21.93;47.51;95323.16;10449698;28;4564;-70
2023/08/06 20:47:28;;;;;;;;;;;;;;;21.80;47.36;95324.66;10443767;28;1893;-66
2023/08/06 20:52:28;;;;;;;;;;;;;;;21.68;47.07;95333.03;10441799;28;2073;-62
2023/08/06 20:57:28;;;;;;;;;;;;;;;21.58;47.35;95337.69;10444213;28;1991;-65
2023/08/06 21:02:29;;;;;;;;;;;;;;;21.64;47.25;95341.81;10445528;28;2258;-65
2023/08/06 21:07:29;;;;;;;;;;;;;;;21.67;47.62;95357.06;10444162;28;1877;-64
2023/08/06 21:12:29;;;;;;;;;;;;;;;21.67;48.18;95357.06;10444789;28;1962;-63
2023/08/06 21:17:29;;;;;;;;;;;;;;;21.68;48.30;95351.50;10451697;28;1882;-62
2023/08/06 21:22:30;;;;;;;;;;;;;;;21.67;48.32;95354.44;10449772;28;1950;-67
2023/08/06 21:27:30;;;;;;;;;;;;;;;21.68;48.60;95348.88;10451990;28;1870;-68
2023/08/06 21:32:30;;;;;;;;;;;;;;;21.69;48.53;95361.00;10453651;28;1957;-68
2023/08/06 21:37:30;;;;;;;;;;;;;;;21.69;48.68;95354.94;10443738;28;1945;-67
2023/08/06 21:42:31;;;;;;;;;;;;;;;21.70;48.71;95351.22;10452698;28;1838;-68
2023/08/06 21:47:31;;;;;;;;;;;;;;;21.70;48.68;95353.88;10455891;28;1870;-68
2023/08/06 21:52:31;;;;;;;;;;;;;;;21.70;48.58;95359.16;10454314;28;2038;-68
2023/08/06 21:57:31;;;;;;;;;;;;;;;21.69;48.50;95352.28;10449661;28;2024;-68
2023/08/06 22:02:32;;;;;;;;;;;;;;;21.69;48.68;95354.94;10447227;28;1901;-67
2023/08/06 22:07:32;;;;;;;;;;;;;;;21.69;48.40;95349.66;10446070;28;1810;-69
2023/08/06 22:12:32;;;;;;;;;;;;;;;21.67;48.29;95349.16;10449031;28;1909;-69
2023/08/06 22:17:33;;;;;;;;;;;;;;;21.68;48.35;95358.63;10453909;28;1869;-69
2023/08/06 22:22:37;;;;;;;;;;;;;;;21.66;48.15;95356.28;10493284;28;1933;-69
2023/08/06 22:27:37;;;;;;;;;;;;;;;21.66;48.19;95337.03;10460169;28;2139;-69
2023/08/06 22:32:37;;;;;;;;;;;;;;;21.65;48.26;95338.91;10442939;28;1953;-70
2023/08/06 22:37:38;;;;;;;;;;;;;;;21.64;48.31;95347.09;10474376;28;1842;-69
2023/08/06 22:42:38;;;;;;;;;;;;;;;21.63;48.03;95340.25;10446903;28;4493;-69
2023/08/06 22:47:38;;;;;;;;;;;;;;;21.62;48.19;95343.97;10452429;28;1998;-69
2023/08/06 22:52:39;;;;;;;;;;;;;;;21.62;48.11;95330.78;10442704;28;2457;-69
2023/08/06 22:57:39;;;;;;;;;;;;;;;21.61;48.05;95324.72;10454949;28;1964;-70
2023/08/06 23:02:39;;;;;;;;;;;;;;;21.60;47.95;95335.56;10445524;28;1877;-70
2023/08/06 23:07:40;;;;;;;;;;;;;;;21.59;48.15;95328.72;10447149;28;1870;-69
2023/08/06 23:12:40;;;;;;;;;;;;;;;21.58;48.14;95333.22;10451082;28;1914;-69
2023/08/06 23:17:40;;;;;;;;;;;;;;;21.58;48.46;95327.16;10454175;28;1870;-70
2023/08/06 23:22:41;;;;;;;;;;;;;;;21.57;48.05;95325.59;10448114;28;1877;-70
2023/08/06 23:27:41;;;;;;;;;;;;;;;21.56;47.92;95329.28;10452761;28;1968;-70
2023/08/06 23:32:41;;;;;;;;;;;;;;;21.56;48.11;95318.75;10441197;28;1917;-69
2023/08/06 23:37:42;;;;;;;;;;;;;;;21.55;48.20;95325.91;10444495;28;1900;-70
2023/08/06 23:42:42;;;;;;;;;;;;;;;21.55;47.88;95311.91;10444971;28;4454;-70
2023/08/06 23:47:43;;;;;;;;;;;;;;;21.53;48.10;95320.13;10445713;28;2751;-69
2023/08/06 23:52:43;;;;;;;;;;;;;;;21.53;48.07;95316.69;10442354;28;2005;-70
2023/08/06 23:57:43;;;;;;;;;;;;;;;21.51;47.82;95317.00;10444063;28;1982;-70
